sensor_id;sensor_type;location;lat;lon;timestamp;temperature;humidity
68865;DHT22;55898;52.196;4.420;2022-08-01T00:00:28;21.03;80.19
68865;DHT22;55898;52.196;4.420;2022-08-01T00:02:53;20.99;80.30
68865;DHT22;55898;52.196;4.420;2022-08-01T00:05:19;21.01;80.39
68865;DHT22;55898;52.196;4.420;2022-08-01T00:07:44;20.97;80.45
68865;DHT22;55898;52.196;4.420;2022-08-01T00:10:14;20.99;80.59
68865;DHT22;55898;52.196;4.420;2022-08-01T00:12:41;20.97;80.88
68865;DHT22;55898;52.196;4.420;2022-08-01T00:15:08;20.97;80.86
68865;DHT22;55898;52.196;4.420;2022-08-01T00:17:34;20.97;80.99
68865;DHT22;55898;52.196;4.420;2022-08-01T00:20:00;20.96;81.27
68865;DHT22;55898;52.196;4.420;2022-08-01T00:22:27;20.96;81.34
68865;DHT22;55898;52.196;4.420;2022-08-01T00:24:53;20.93;81.19
68865;DHT22;55898;52.196;4.420;2022-08-01T00:27:18;20.87;81.00
68865;DHT22;55898;52.196;4.420;2022-08-01T00:29:44;20.87;81.38
68865;DHT22;55898;52.196;4.420;2022-08-01T00:32:09;20.84;80.76
68865;DHT22;55898;52.196;4.420;2022-08-01T00:34:35;20.87;81.06
68865;DHT22;55898;52.196;4.420;2022-08-01T00:37:00;20.83;80.65
68865;DHT22;55898;52.196;4.420;2022-08-01T00:39:26;20.82;80.77
68865;DHT22;55898;52.196;4.420;2022-08-01T00:41:51;20.82;80.94
68865;DHT22;55898;52.196;4.420;2022-08-01T00:44:17;20.80;81.28
68865;DHT22;55898;52.196;4.420;2022-08-01T00:46:42;20.77;80.63
68865;DHT22;55898;52.196;4.420;2022-08-01T00:49:07;20.77;80.73
68865;DHT22;55898;52.196;4.420;2022-08-01T00:51:33;20.77;81.08
68865;DHT22;55898;52.196;4.420;2022-08-01T00:54:00;20.79;80.66
68865;DHT22;55898;52.196;4.420;2022-08-01T00:56:27;20.79;80.73
68865;DHT22;55898;52.196;4.420;2022-08-01T00:58:55;20.76;79.91
68865;DHT22;55898;52.196;4.420;2022-08-01T01:01:21;20.76;80.45
68865;DHT22;55898;52.196;4.420;2022-08-01T01:03:52;20.75;80.40
68865;DHT22;55898;52.196;4.420;2022-08-01T01:09:15;20.75;80.07
68865;DHT22;55898;52.196;4.420;2022-08-01T01:14:33;20.72;79.89
68865;DHT22;55898;52.196;4.420;2022-08-01T01:17:06;20.76;79.65
68865;DHT22;55898;52.196;4.420;2022-08-01T01:19:39;20.75;79.12
68865;DHT22;55898;52.196;4.420;2022-08-01T01:22:19;20.73;79.30
68865;DHT22;55898;52.196;4.420;2022-08-01T01:27:57;20.73;79.53
68865;DHT22;55898;52.196;4.420;2022-08-01T01:30:29;20.76;79.84
68865;DHT22;55898;52.196;4.420;2022-08-01T01:33:00;20.79;79.66
68865;DHT22;55898;52.196;4.420;2022-08-01T01:35:30;20.79;79.50
68865;DHT22;55898;52.196;4.420;2022-08-01T01:38:15;20.75;79.56
68865;DHT22;55898;52.196;4.420;2022-08-01T01:40:46;20.80;79.66
68865;DHT22;55898;52.196;4.420;2022-08-01T01:43:15;20.80;79.62
68865;DHT22;55898;52.196;4.420;2022-08-01T01:45:42;20.80;79.48
68865;DHT22;55898;52.196;4.420;2022-08-01T01:48:16;20.82;79.83
68865;DHT22;55898;52.196;4.420;2022-08-01T01:50:46;20.79;79.79
68865;DHT22;55898;52.196;4.420;2022-08-01T01:53:14;20.77;79.89
68865;DHT22;55898;52.196;4.420;2022-08-01T01:55:43;20.82;79.94
68865;DHT22;55898;52.196;4.420;2022-08-01T01:58:13;20.76;80.06
68865;DHT22;55898;52.196;4.420;2022-08-01T02:00:41;20.75;80.38
68865;DHT22;55898;52.196;4.420;2022-08-01T02:03:10;20.76;80.49
68865;DHT22;55898;52.196;4.420;2022-08-01T02:05:38;20.73;80.45
68865;DHT22;55898;52.196;4.420;2022-08-01T02:08:06;20.72;80.39
68865;DHT22;55898;52.196;4.420;2022-08-01T02:10:35;20.70;80.41
68865;DHT22;55898;52.196;4.420;2022-08-01T02:13:03;20.69;80.17
68865;DHT22;55898;52.196;4.420;2022-08-01T02:15:34;20.65;80.12
68865;DHT22;55898;52.196;4.420;2022-08-01T02:18:06;20.65;80.25
68865;DHT22;55898;52.196;4.420;2022-08-01T02:20:36;20.60;80.27
68865;DHT22;55898;52.196;4.420;2022-08-01T02:23:11;20.62;80.27
68865;DHT22;55898;52.196;4.420;2022-08-01T02:25:44;20.55;80.38
68865;DHT22;55898;52.196;4.420;2022-08-01T02:28:25;20.49;80.21
68865;DHT22;55898;52.196;4.420;2022-08-01T02:31:00;20.52;80.60
68865;DHT22;55898;52.196;4.420;2022-08-01T02:33:41;20.53;80.62
68865;DHT22;55898;52.196;4.420;2022-08-01T02:36:10;20.55;80.90
68865;DHT22;55898;52.196;4.420;2022-08-01T02:38:42;20.56;81.04
68865;DHT22;55898;52.196;4.420;2022-08-01T02:41:11;20.60;81.15
68865;DHT22;55898;52.196;4.420;2022-08-01T02:43:43;20.60;81.08
68865;DHT22;55898;52.196;4.420;2022-08-01T02:46:17;20.56;81.00
68865;DHT22;55898;52.196;4.420;2022-08-01T02:48:46;20.56;80.98
68865;DHT22;55898;52.196;4.420;2022-08-01T02:51:15;20.59;81.01
68865;DHT22;55898;52.196;4.420;2022-08-01T02:53:43;20.60;81.06
68865;DHT22;55898;52.196;4.420;2022-08-01T02:56:11;20.63;81.30
68865;DHT22;55898;52.196;4.420;2022-08-01T02:58:40;20.65;81.29
68865;DHT22;55898;52.196;4.420;2022-08-01T03:01:09;20.65;81.24
68865;DHT22;55898;52.196;4.420;2022-08-01T03:03:36;20.62;81.26
68865;DHT22;55898;52.196;4.420;2022-08-01T03:06:02;20.65;81.00
68865;DHT22;55898;52.196;4.420;2022-08-01T03:08:30;20.63;80.49
68865;DHT22;55898;52.196;4.420;2022-08-01T03:10:59;20.68;80.48
68865;DHT22;55898;52.196;4.420;2022-08-01T03:13:29;20.69;80.64
68865;DHT22;55898;52.196;4.420;2022-08-01T03:15:57;20.70;80.39
68865;DHT22;55898;52.196;4.420;2022-08-01T03:18:25;20.72;80.44
68865;DHT22;55898;52.196;4.420;2022-08-01T03:20:54;20.72;80.51
68865;DHT22;55898;52.196;4.420;2022-08-01T03:23:21;20.72;80.61
68865;DHT22;55898;52.196;4.420;2022-08-01T03:25:49;20.73;80.70
68865;DHT22;55898;52.196;4.420;2022-08-01T03:28:18;20.70;80.74
68865;DHT22;55898;52.196;4.420;2022-08-01T03:30:46;20.73;80.95
68865;DHT22;55898;52.196;4.420;2022-08-01T03:33:12;20.69;80.83
68865;DHT22;55898;52.196;4.420;2022-08-01T03:35:47;20.66;80.75
68865;DHT22;55898;52.196;4.420;2022-08-01T03:38:18;20.63;80.83
68865;DHT22;55898;52.196;4.420;2022-08-01T03:40:51;20.59;80.94
68865;DHT22;55898;52.196;4.420;2022-08-01T03:43:24;20.55;81.03
68865;DHT22;55898;52.196;4.420;2022-08-01T03:45:52;20.55;81.14
68865;DHT22;55898;52.196;4.420;2022-08-01T03:48:24;20.53;81.30
68865;DHT22;55898;52.196;4.420;2022-08-01T03:50:54;20.53;81.15
68865;DHT22;55898;52.196;4.420;2022-08-01T03:53:23;20.56;81.05
68865;DHT22;55898;52.196;4.420;2022-08-01T03:55:51;20.55;81.17
68865;DHT22;55898;52.196;4.420;2022-08-01T03:58:18;20.55;81.38
68865;DHT22;55898;52.196;4.420;2022-08-01T04:00:45;20.46;80.65
68865;DHT22;55898;52.196;4.420;2022-08-01T04:03:12;20.46;81.09
68865;DHT22;55898;52.196;4.420;2022-08-01T04:05:42;20.48;81.39
68865;DHT22;55898;52.196;4.420;2022-08-01T04:08:09;20.52;81.52
68865;DHT22;55898;52.196;4.420;2022-08-01T04:10:34;20.53;81.53
68865;DHT22;55898;52.196;4.420;2022-08-01T04:13:00;20.53;81.62
68865;DHT22;55898;52.196;4.420;2022-08-01T04:15:26;20.55;81.59
68865;DHT22;55898;52.196;4.420;2022-08-01T04:17:51;20.56;81.72
68865;DHT22;55898;52.196;4.420;2022-08-01T04:20:17;20.43;81.16
68865;DHT22;55898;52.196;4.420;2022-08-01T04:22:42;20.36;81.29
68865;DHT22;55898;52.196;4.420;2022-08-01T04:25:16;20.36;81.71
68865;DHT22;55898;52.196;4.420;2022-08-01T04:27:47;20.38;81.83
68865;DHT22;55898;52.196;4.420;2022-08-01T04:30:17;20.42;81.86
68865;DHT22;55898;52.196;4.420;2022-08-01T04:32:45;20.46;81.62
68865;DHT22;55898;52.196;4.420;2022-08-01T04:35:13;20.46;81.91
68865;DHT22;55898;52.196;4.420;2022-08-01T04:37:44;20.43;82.31
68865;DHT22;55898;52.196;4.420;2022-08-01T04:40:11;20.42;83.05
68865;DHT22;55898;52.196;4.420;2022-08-01T04:42:38;20.41;83.30
68865;DHT22;55898;52.196;4.420;2022-08-01T04:45:04;20.39;83.45
68865;DHT22;55898;52.196;4.420;2022-08-01T04:47:30;20.39;83.82
68865;DHT22;55898;52.196;4.420;2022-08-01T04:49:56;20.35;83.78
68865;DHT22;55898;52.196;4.420;2022-08-01T04:52:22;20.33;84.11
68865;DHT22;55898;52.196;4.420;2022-08-01T04:54:48;20.32;84.05
68865;DHT22;55898;52.196;4.420;2022-08-01T04:57:13;20.32;84.38
68865;DHT22;55898;52.196;4.420;2022-08-01T04:59:43;20.33;84.39
68865;DHT22;55898;52.196;4.420;2022-08-01T05:02:17;20.36;84.42
68865;DHT22;55898;52.196;4.420;2022-08-01T05:04:46;20.33;84.41
68865;DHT22;55898;52.196;4.420;2022-08-01T05:07:13;20.32;84.16
68865;DHT22;55898;52.196;4.420;2022-08-01T05:09:39;20.29;83.78
68865;DHT22;55898;52.196;4.420;2022-08-01T05:12:11;20.25;83.91
68865;DHT22;55898;52.196;4.420;2022-08-01T05:14:36;20.26;83.89
68865;DHT22;55898;52.196;4.420;2022-08-01T05:17:05;20.22;83.82
68865;DHT22;55898;52.196;4.420;2022-08-01T05:19:32;20.24;84.16
68865;DHT22;55898;52.196;4.420;2022-08-01T05:22:03;20.24;84.41
68865;DHT22;55898;52.196;4.420;2022-08-01T05:24:32;20.26;84.32
68865;DHT22;55898;52.196;4.420;2022-08-01T05:26:58;20.31;84.49
68865;DHT22;55898;52.196;4.420;2022-08-01T05:29:25;20.32;84.41
68865;DHT22;55898;52.196;4.420;2022-08-01T05:31:50;20.33;84.42
68865;DHT22;55898;52.196;4.420;2022-08-01T05:34:17;20.35;84.35
68865;DHT22;55898;52.196;4.420;2022-08-01T05:36:43;20.32;84.20
68865;DHT22;55898;52.196;4.420;2022-08-01T05:39:09;20.31;84.22
68865;DHT22;55898;52.196;4.420;2022-08-01T05:41:35;20.33;84.38
68865;DHT22;55898;52.196;4.420;2022-08-01T05:44:01;20.36;84.34
68865;DHT22;55898;52.196;4.420;2022-08-01T05:46:27;20.39;84.30
68865;DHT22;55898;52.196;4.420;2022-08-01T05:48:53;20.41;84.23
68865;DHT22;55898;52.196;4.420;2022-08-01T05:51:18;20.36;83.94
68865;DHT22;55898;52.196;4.420;2022-08-01T05:53:44;20.42;83.82
68865;DHT22;55898;52.196;4.420;2022-08-01T05:56:09;20.43;83.72
68865;DHT22;55898;52.196;4.420;2022-08-01T05:58:35;20.43;83.32
68865;DHT22;55898;52.196;4.420;2022-08-01T06:01:00;20.41;83.64
68865;DHT22;55898;52.196;4.420;2022-08-01T06:03:26;20.48;83.67
68865;DHT22;55898;52.196;4.420;2022-08-01T06:05:57;20.51;83.36
68865;DHT22;55898;52.196;4.420;2022-08-01T06:08:22;20.52;83.42
68865;DHT22;55898;52.196;4.420;2022-08-01T06:10:48;20.55;83.33
68865;DHT22;55898;52.196;4.420;2022-08-01T06:13:14;20.56;83.12
68865;DHT22;55898;52.196;4.420;2022-08-01T06:15:39;20.57;83.17
68865;DHT22;55898;52.196;4.420;2022-08-01T06:18:05;20.57;82.74
68865;DHT22;55898;52.196;4.420;2022-08-01T06:20:31;20.63;82.43
68865;DHT22;55898;52.196;4.420;2022-08-01T06:22:56;20.60;82.19
68865;DHT22;55898;52.196;4.420;2022-08-01T06:25:22;20.62;81.23
68865;DHT22;55898;52.196;4.420;2022-08-01T06:27:48;20.65;81.61
68865;DHT22;55898;52.196;4.420;2022-08-01T06:30:15;20.66;81.82
68865;DHT22;55898;52.196;4.420;2022-08-01T06:32:41;20.69;81.67
68865;DHT22;55898;52.196;4.420;2022-08-01T06:35:06;20.69;81.49
68865;DHT22;55898;52.196;4.420;2022-08-01T06:37:32;20.70;81.50
68865;DHT22;55898;52.196;4.420;2022-08-01T06:40:05;20.69;80.79
68865;DHT22;55898;52.196;4.420;2022-08-01T06:42:31;20.75;81.22
68865;DHT22;55898;52.196;4.420;2022-08-01T06:45:04;20.80;80.91
68865;DHT22;55898;52.196;4.420;2022-08-01T06:47:30;20.80;80.93
68865;DHT22;55898;52.196;4.420;2022-08-01T06:49:56;20.89;80.43
68865;DHT22;55898;52.196;4.420;2022-08-01T06:52:21;20.94;80.33
68865;DHT22;55898;52.196;4.420;2022-08-01T06:54:47;20.80;79.01
68865;DHT22;55898;52.196;4.420;2022-08-01T06:57:13;20.73;79.16
68865;DHT22;55898;52.196;4.420;2022-08-01T06:59:38;20.79;79.30
68865;DHT22;55898;52.196;4.420;2022-08-01T07:02:03;20.75;78.80
68865;DHT22;55898;52.196;4.420;2022-08-01T07:04:29;20.77;79.31
68865;DHT22;55898;52.196;4.420;2022-08-01T07:06:55;20.59;78.11
68865;DHT22;55898;52.196;4.420;2022-08-01T07:09:21;20.53;78.09
68865;DHT22;55898;52.196;4.420;2022-08-01T07:11:46;20.60;79.01
68865;DHT22;55898;52.196;4.420;2022-08-01T07:14:12;20.62;78.33
68865;DHT22;55898;52.196;4.420;2022-08-01T07:16:37;20.63;78.71
68865;DHT22;55898;52.196;4.420;2022-08-01T07:19:03;20.66;79.07
68865;DHT22;55898;52.196;4.420;2022-08-01T07:21:28;20.73;79.05
68865;DHT22;55898;52.196;4.420;2022-08-01T07:23:54;20.82;78.93
68865;DHT22;55898;52.196;4.420;2022-08-01T07:26:19;20.89;77.81
68865;DHT22;55898;52.196;4.420;2022-08-01T07:28:45;20.82;76.21
68865;DHT22;55898;52.196;4.420;2022-08-01T07:31:10;20.80;75.61
68865;DHT22;55898;52.196;4.420;2022-08-01T07:33:36;20.72;74.99
68865;DHT22;55898;52.196;4.420;2022-08-01T07:36:02;20.57;74.70
68865;DHT22;55898;52.196;4.420;2022-08-01T07:38:29;20.65;76.22
68865;DHT22;55898;52.196;4.420;2022-08-01T07:40:54;20.65;76.43
68865;DHT22;55898;52.196;4.420;2022-08-01T07:43:20;20.73;76.02
68865;DHT22;55898;52.196;4.420;2022-08-01T07:45:45;20.69;75.09
68865;DHT22;55898;52.196;4.420;2022-08-01T07:48:11;20.72;76.24
68865;DHT22;55898;52.196;4.420;2022-08-01T07:50:36;20.70;74.68
68865;DHT22;55898;52.196;4.420;2022-08-01T07:53:02;20.79;75.67
68865;DHT22;55898;52.196;4.420;2022-08-01T07:55:28;20.83;74.68
68865;DHT22;55898;52.196;4.420;2022-08-01T07:57:54;20.90;74.27
68865;DHT22;55898;52.196;4.420;2022-08-01T08:00:19;20.97;74.04
68865;DHT22;55898;52.196;4.420;2022-08-01T08:02:45;21.01;73.89
68865;DHT22;55898;52.196;4.420;2022-08-01T08:05:11;20.97;73.60
68865;DHT22;55898;52.196;4.420;2022-08-01T08:07:38;21.03;73.55
68865;DHT22;55898;52.196;4.420;2022-08-01T08:10:04;21.04;74.50
68865;DHT22;55898;52.196;4.420;2022-08-01T08:12:31;21.08;72.75
68865;DHT22;55898;52.196;4.420;2022-08-01T08:14:57;21.08;72.46
68865;DHT22;55898;52.196;4.420;2022-08-01T08:17:27;21.12;72.14
68865;DHT22;55898;52.196;4.420;2022-08-01T08:19:53;21.14;71.42
68865;DHT22;55898;52.196;4.420;2022-08-01T08:22:19;21.21;71.76
68865;DHT22;55898;52.196;4.420;2022-08-01T08:24:44;21.20;69.57
68865;DHT22;55898;52.196;4.420;2022-08-01T08:27:10;21.24;71.50
68865;DHT22;55898;52.196;4.420;2022-08-01T08:29:35;21.30;70.82
68865;DHT22;55898;52.196;4.420;2022-08-01T08:32:01;21.34;70.89
68865;DHT22;55898;52.196;4.420;2022-08-01T08:34:28;21.41;70.84
68865;DHT22;55898;52.196;4.420;2022-08-01T08:36:54;21.42;71.11
68865;DHT22;55898;52.196;4.420;2022-08-01T08:39:22;21.37;71.26
68865;DHT22;55898;52.196;4.420;2022-08-01T08:41:48;21.37;70.78
68865;DHT22;55898;52.196;4.420;2022-08-01T08:44:14;21.41;70.32
68865;DHT22;55898;52.196;4.420;2022-08-01T08:46:45;21.48;70.72
68865;DHT22;55898;52.196;4.420;2022-08-01T08:49:16;21.59;70.55
68865;DHT22;55898;52.196;4.420;2022-08-01T08:51:42;21.68;71.01
68865;DHT22;55898;52.196;4.420;2022-08-01T08:54:11;21.78;69.62
68865;DHT22;55898;52.196;4.420;2022-08-01T08:56:39;21.81;69.77
68865;DHT22;55898;52.196;4.420;2022-08-01T08:59:05;21.89;69.67
68865;DHT22;55898;52.196;4.420;2022-08-01T09:01:32;21.92;69.61
68865;DHT22;55898;52.196;4.420;2022-08-01T09:03:58;21.93;68.75
68865;DHT22;55898;52.196;4.420;2022-08-01T09:06:24;21.96;68.92
68865;DHT22;55898;52.196;4.420;2022-08-01T09:08:50;21.97;67.57
68865;DHT22;55898;52.196;4.420;2022-08-01T09:11:15;22.06;67.20
68865;DHT22;55898;52.196;4.420;2022-08-01T09:13:41;22.17;68.65
68865;DHT22;55898;52.196;4.420;2022-08-01T09:16:07;22.30;66.76
68865;DHT22;55898;52.196;4.420;2022-08-01T09:18:38;22.26;66.15
68865;DHT22;55898;52.196;4.420;2022-08-01T09:21:10;22.30;66.62
68865;DHT22;55898;52.196;4.420;2022-08-01T09:23:49;22.33;65.31
68865;DHT22;55898;52.196;4.420;2022-08-01T09:26:17;22.39;66.67
68865;DHT22;55898;52.196;4.420;2022-08-01T09:28:43;22.44;66.53
68865;DHT22;55898;52.196;4.420;2022-08-01T09:31:12;22.57;65.11
68865;DHT22;55898;52.196;4.420;2022-08-01T09:33:54;22.58;65.37
68865;DHT22;55898;52.196;4.420;2022-08-01T09:36:22;22.69;66.50
68865;DHT22;55898;52.196;4.420;2022-08-01T09:38:48;22.84;65.66
68865;DHT22;55898;52.196;4.420;2022-08-01T09:41:14;22.88;64.00
68865;DHT22;55898;52.196;4.420;2022-08-01T09:43:48;22.87;63.32
68865;DHT22;55898;52.196;4.420;2022-08-01T09:46:14;22.81;65.08
68865;DHT22;55898;52.196;4.420;2022-08-01T09:48:56;22.95;64.32
68865;DHT22;55898;52.196;4.420;2022-08-01T09:51:31;23.01;64.36
68865;DHT22;55898;52.196;4.420;2022-08-01T09:53:58;23.04;64.15
68865;DHT22;55898;52.196;4.420;2022-08-01T09:56:25;23.04;63.86
68865;DHT22;55898;52.196;4.420;2022-08-01T09:58:56;23.09;63.10
68865;DHT22;55898;52.196;4.420;2022-08-01T10:01:22;23.06;63.40
68865;DHT22;55898;52.196;4.420;2022-08-01T10:06:35;23.16;62.87
68865;DHT22;55898;52.196;4.420;2022-08-01T10:09:02;23.13;62.60
68865;DHT22;55898;52.196;4.420;2022-08-01T10:11:28;23.15;62.45
68865;DHT22;55898;52.196;4.420;2022-08-01T10:13:56;23.27;62.83
68865;DHT22;55898;52.196;4.420;2022-08-01T10:16:24;23.34;62.41
68865;DHT22;55898;52.196;4.420;2022-08-01T10:18:53;23.42;62.44
68865;DHT22;55898;52.196;4.420;2022-08-01T10:21:20;23.47;61.02
68865;DHT22;55898;52.196;4.420;2022-08-01T10:23:47;23.43;61.98
68865;DHT22;55898;52.196;4.420;2022-08-01T10:26:14;23.46;61.11
68865;DHT22;55898;52.196;4.420;2022-08-01T10:28:44;23.54;61.95
68865;DHT22;55898;52.196;4.420;2022-08-01T10:31:12;23.62;60.89
68865;DHT22;55898;52.196;4.420;2022-08-01T10:33:39;23.66;61.27
68865;DHT22;55898;52.196;4.420;2022-08-01T10:36:07;23.64;59.64
68865;DHT22;55898;52.196;4.420;2022-08-01T10:38:34;23.62;60.34
68865;DHT22;55898;52.196;4.420;2022-08-01T10:41:02;23.63;60.70
68865;DHT22;55898;52.196;4.420;2022-08-01T10:43:28;23.71;61.10
68865;DHT22;55898;52.196;4.420;2022-08-01T10:45:55;23.70;60.39
68865;DHT22;55898;52.196;4.420;2022-08-01T10:51:03;23.83;59.42
68865;DHT22;55898;52.196;4.420;2022-08-01T10:53:29;23.94;59.14
68865;DHT22;55898;52.196;4.420;2022-08-01T10:58:28;24.17;58.20
68865;DHT22;55898;52.196;4.420;2022-08-01T11:03:38;24.31;56.66
68865;DHT22;55898;52.196;4.420;2022-08-01T11:06:04;24.42;54.65
68865;DHT22;55898;52.196;4.420;2022-08-01T11:08:31;24.36;55.31
68865;DHT22;55898;52.196;4.420;2022-08-01T11:11:02;24.28;55.19
68865;DHT22;55898;52.196;4.420;2022-08-01T11:16:42;24.33;56.90
68865;DHT22;55898;52.196;4.420;2022-08-01T11:19:08;24.47;56.77
68865;DHT22;55898;52.196;4.420;2022-08-01T11:27:28;24.83;54.71
68865;DHT22;55898;52.196;4.420;2022-08-01T11:32:57;24.80;56.01
68865;DHT22;55898;52.196;4.420;2022-08-01T11:35:24;25.02;54.58
68865;DHT22;55898;52.196;4.420;2022-08-01T11:37:53;25.17;54.53
68865;DHT22;55898;52.196;4.420;2022-08-01T11:40:27;25.33;53.08
68865;DHT22;55898;52.196;4.420;2022-08-01T11:43:19;25.69;53.24
68865;DHT22;55898;52.196;4.420;2022-08-01T11:45:49;26.50;51.60
68865;DHT22;55898;52.196;4.420;2022-08-01T11:55:49;29.41;45.12
68865;DHT22;55898;52.196;4.420;2022-08-01T11:58:21;29.99;44.01
68865;DHT22;55898;52.196;4.420;2022-08-01T12:00:53;30.10;42.31
68865;DHT22;55898;52.196;4.420;2022-08-01T12:03:27;30.41;42.21
68865;DHT22;55898;52.196;4.420;2022-08-01T12:05:56;30.53;41.16
68865;DHT22;55898;52.196;4.420;2022-08-01T12:08:33;30.47;41.22
68865;DHT22;55898;52.196;4.420;2022-08-01T12:11:00;30.10;41.04
68865;DHT22;55898;52.196;4.420;2022-08-01T12:13:26;30.01;41.24
68865;DHT22;55898;52.196;4.420;2022-08-01T12:15:52;30.22;41.70
68865;DHT22;55898;52.196;4.420;2022-08-01T12:18:18;30.41;41.30
68865;DHT22;55898;52.196;4.420;2022-08-01T12:20:45;30.40;41.07
68865;DHT22;55898;52.196;4.420;2022-08-01T12:23:13;30.59;41.59
68865;DHT22;55898;52.196;4.420;2022-08-01T12:25:40;31.09;40.13
68865;DHT22;55898;52.196;4.420;2022-08-01T12:28:11;31.33;38.43
68865;DHT22;55898;52.196;4.420;2022-08-01T12:30:39;31.39;38.80
68865;DHT22;55898;52.196;4.420;2022-08-01T12:33:09;31.57;40.25
68865;DHT22;55898;52.196;4.420;2022-08-01T12:35:37;32.04;38.03
68865;DHT22;55898;52.196;4.420;2022-08-01T12:38:14;32.35;37.01
68865;DHT22;55898;52.196;4.420;2022-08-01T12:40:45;32.96;36.01
68865;DHT22;55898;52.196;4.420;2022-08-01T12:43:16;33.50;35.41
68865;DHT22;55898;52.196;4.420;2022-08-01T12:45:43;33.39;32.34
68865;DHT22;55898;52.196;4.420;2022-08-01T13:08:20;33.85;34.60
68865;DHT22;55898;52.196;4.420;2022-08-01T13:10:47;34.15;32.85
68865;DHT22;55898;52.196;4.420;2022-08-01T13:13:14;34.27;30.47
68865;DHT22;55898;52.196;4.420;2022-08-01T13:15:42;33.91;28.85
68865;DHT22;55898;52.196;4.420;2022-08-01T13:18:29;33.03;31.49
68865;DHT22;55898;52.196;4.420;2022-08-01T13:24:04;32.25;33.47
68865;DHT22;55898;52.196;4.420;2022-08-01T13:29:06;33.48;29.41
68865;DHT22;55898;52.196;4.420;2022-08-01T13:31:33;33.61;28.24
68865;DHT22;55898;52.196;4.420;2022-08-01T13:33:59;33.10;29.82
68865;DHT22;55898;52.196;4.420;2022-08-01T13:36:25;32.44;29.69
68865;DHT22;55898;52.196;4.420;2022-08-01T13:38:54;32.01;31.19
68865;DHT22;55898;52.196;4.420;2022-08-01T13:41:38;31.46;30.69
68865;DHT22;55898;52.196;4.420;2022-08-01T13:44:03;31.26;30.79
68865;DHT22;55898;52.196;4.420;2022-08-01T13:46:29;30.82;29.30
68865;DHT22;55898;52.196;4.420;2022-08-01T13:48:55;30.88;31.20
68865;DHT22;55898;52.196;4.420;2022-08-01T13:51:21;30.82;32.77
68865;DHT22;55898;52.196;4.420;2022-08-01T13:53:46;30.82;32.33
68865;DHT22;55898;52.196;4.420;2022-08-01T13:56:12;30.88;31.47
68865;DHT22;55898;52.196;4.420;2022-08-01T13:58:37;31.12;30.06
68865;DHT22;55898;52.196;4.420;2022-08-01T14:01:03;32.44;27.04
68865;DHT22;55898;52.196;4.420;2022-08-01T14:03:28;34.13;27.02
68865;DHT22;55898;52.196;4.420;2022-08-01T14:05:53;35.10;25.16
68865;DHT22;55898;52.196;4.420;2022-08-01T14:08:19;35.90;25.90
68865;DHT22;55898;52.196;4.420;2022-08-01T14:10:44;36.09;22.54
68865;DHT22;55898;52.196;4.420;2022-08-01T14:13:10;36.45;22.56
68865;DHT22;55898;52.196;4.420;2022-08-01T14:15:36;36.92;23.61
68865;DHT22;55898;52.196;4.420;2022-08-01T14:18:01;36.38;20.17
68865;DHT22;55898;52.196;4.420;2022-08-01T14:20:27;35.90;22.65
68865;DHT22;55898;52.196;4.420;2022-08-01T14:22:52;36.13;22.89
68865;DHT22;55898;52.196;4.420;2022-08-01T14:25:18;36.45;23.06
68865;DHT22;55898;52.196;4.420;2022-08-01T14:27:44;36.19;23.28
68865;DHT22;55898;52.196;4.420;2022-08-01T14:30:11;36.31;24.21
68865;DHT22;55898;52.196;4.420;2022-08-01T14:32:37;36.04;23.35
68865;DHT22;55898;52.196;4.420;2022-08-01T14:35:05;36.19;23.15
68865;DHT22;55898;52.196;4.420;2022-08-01T14:37:32;36.28;22.60
68865;DHT22;55898;52.196;4.420;2022-08-01T14:39:59;35.96;23.02
68865;DHT22;55898;52.196;4.420;2022-08-01T14:42:26;35.70;24.67
68865;DHT22;55898;52.196;4.420;2022-08-01T14:44:51;35.48;24.89
68865;DHT22;55898;52.196;4.420;2022-08-01T14:47:17;35.30;24.51
68865;DHT22;55898;52.196;4.420;2022-08-01T14:49:42;35.08;24.10
68865;DHT22;55898;52.196;4.420;2022-08-01T14:52:08;35.00;24.33
68865;DHT22;55898;52.196;4.420;2022-08-01T14:54:33;34.76;24.95
68865;DHT22;55898;52.196;4.420;2022-08-01T15:21:33;33.68;22.95
68865;DHT22;55898;52.196;4.420;2022-08-01T15:23:59;33.58;24.78
68865;DHT22;55898;52.196;4.420;2022-08-01T15:26:24;33.37;23.66
68865;DHT22;55898;52.196;4.420;2022-08-01T15:28:50;33.37;23.93
68865;DHT22;55898;52.196;4.420;2022-08-01T15:31:15;33.41;25.72
68865;DHT22;55898;52.196;4.420;2022-08-01T15:33:40;33.19;24.29
68865;DHT22;55898;52.196;4.420;2022-08-01T15:36:06;33.17;23.86
68865;DHT22;55898;52.196;4.420;2022-08-01T15:38:32;33.10;25.69
68865;DHT22;55898;52.196;4.420;2022-08-01T15:40:58;33.16;25.59
68865;DHT22;55898;52.196;4.420;2022-08-01T15:43:23;33.19;26.11
68865;DHT22;55898;52.196;4.420;2022-08-01T15:45:49;33.24;25.82
68865;DHT22;55898;52.196;4.420;2022-08-01T15:48:16;33.16;24.82
68865;DHT22;55898;52.196;4.420;2022-08-01T15:50:42;32.96;24.56
68865;DHT22;55898;52.196;4.420;2022-08-01T15:53:07;32.39;26.49
68865;DHT22;55898;52.196;4.420;2022-08-01T15:55:37;31.93;27.28
68865;DHT22;55898;52.196;4.420;2022-08-01T15:58:03;31.29;28.25
68865;DHT22;55898;52.196;4.420;2022-08-01T16:00:29;30.74;27.94
68865;DHT22;55898;52.196;4.420;2022-08-01T16:02:55;30.50;27.43
68865;DHT22;55898;52.196;4.420;2022-08-01T16:05:22;30.43;27.82
68865;DHT22;55898;52.196;4.420;2022-08-01T16:07:47;30.26;28.70
68865;DHT22;55898;52.196;4.420;2022-08-01T16:10:13;30.13;31.17
68865;DHT22;55898;52.196;4.420;2022-08-01T16:12:38;29.88;30.72
68865;DHT22;55898;52.196;4.420;2022-08-01T16:15:04;29.66;30.17
68865;DHT22;55898;52.196;4.420;2022-08-01T16:17:30;29.55;31.56
68865;DHT22;55898;52.196;4.420;2022-08-01T16:19:55;29.37;30.96
68865;DHT22;55898;52.196;4.420;2022-08-01T16:22:21;29.27;31.86
68865;DHT22;55898;52.196;4.420;2022-08-01T16:24:46;29.08;32.52
68865;DHT22;55898;52.196;4.420;2022-08-01T16:27:12;29.04;30.38
68865;DHT22;55898;52.196;4.420;2022-08-01T16:29:37;28.86;32.15
68865;DHT22;55898;52.196;4.420;2022-08-01T16:32:03;28.52;33.24
68865;DHT22;55898;52.196;4.420;2022-08-01T16:34:29;28.38;32.23
68865;DHT22;55898;52.196;4.420;2022-08-01T16:36:54;28.22;33.45
68865;DHT22;55898;52.196;4.420;2022-08-01T16:39:21;28.18;33.45
68865;DHT22;55898;52.196;4.420;2022-08-01T16:41:47;28.14;34.05
68865;DHT22;55898;52.196;4.420;2022-08-01T16:44:12;28.09;34.25
68865;DHT22;55898;52.196;4.420;2022-08-01T16:46:38;27.97;34.07
68865;DHT22;55898;52.196;4.420;2022-08-01T16:49:03;27.80;34.76
68865;DHT22;55898;52.196;4.420;2022-08-01T16:51:31;27.77;34.60
68865;DHT22;55898;52.196;4.420;2022-08-01T16:53:56;27.71;34.19
68865;DHT22;55898;52.196;4.420;2022-08-01T16:56:22;27.64;33.98
68865;DHT22;55898;52.196;4.420;2022-08-01T16:58:48;27.56;35.53
68865;DHT22;55898;52.196;4.420;2022-08-01T17:01:14;27.57;33.26